createdAt,value
2022-11-23T06:02:24.571Z,54.21
2022-11-23T06:04:56.579Z,54.23
2022-11-23T06:07:35.488Z,54.37
2022-11-23T06:10:07.557Z,54.50
2022-11-23T06:12:38.461Z,54.46
2022-11-23T06:15:08.906Z,54.37
2022-11-23T06:17:36.372Z,54.30
2022-11-23T06:20:06.888Z,54.43
2022-11-23T06:22:36.389Z,54.50
2022-11-23T06:25:05.629Z,54.23
2022-11-23T06:27:39.935Z,54.36
2022-11-23T06:30:22.630Z,54.35
2022-11-23T06:32:50.172Z,54.58
2022-11-23T06:35:18.334Z,54.68
2022-11-23T06:37:45.706Z,54.55
2022-11-23T06:40:12.618Z,54.46
2022-11-23T06:42:40.877Z,54.54
2022-11-23T06:45:21.330Z,54.30
2022-11-23T06:47:54.960Z,54.46
2022-11-23T06:50:21.488Z,54.40
2022-11-23T06:52:49.040Z,54.46
2022-11-23T06:55:22.989Z,54.25
2022-11-23T06:58:10.511Z,54.29
2022-11-23T07:00:37.061Z,54.50
2022-11-23T07:03:04.229Z,54.39
2022-11-23T07:05:38.668Z,54.47
2022-11-23T07:08:06.595Z,54.62
2022-11-23T07:10:33.670Z,54.97
2022-11-23T07:13:09.481Z,54.83
2022-11-23T07:15:37.031Z,55.13
2022-11-23T07:18:05.056Z,55.04
2022-11-23T07:20:32.666Z,54.89
2022-11-23T07:23:01.861Z,55.13
2022-11-23T07:25:33.063Z,55.15
2022-11-23T07:28:02.523Z,55.03
2022-11-23T07:30:30.726Z,55.29
2022-11-23T07:33:08.595Z,55.03
2022-11-23T07:35:37.952Z,55.39
2022-11-23T07:38:08.277Z,55.11
2022-11-23T07:40:39.365Z,55.48
2022-11-23T07:43:13.861Z,55.17
2022-11-23T07:45:40.477Z,55.33
2022-11-23T07:48:10.539Z,55.04
2022-11-23T08:27:55.129Z,100.00
2022-11-23T08:30:21.723Z,100.00
2022-11-23T08:32:48.934Z,100.00
2022-11-23T08:35:15.527Z,100.00
2022-11-23T08:37:42.681Z,100.00
2022-11-23T08:40:09.965Z,100.00
2022-11-23T08:42:37.117Z,100.00
2022-11-23T08:45:05.297Z,100.00
2022-11-23T08:47:33.076Z,100.00
2022-11-23T08:49:59.844Z,100.00
2022-11-23T08:52:27.582Z,100.00
2022-11-23T08:54:54.212Z,100.00
2022-11-23T08:57:21.054Z,100.00
2022-11-23T08:59:47.638Z,100.00
2022-11-23T09:02:15.306Z,100.00
2022-11-23T09:04:42.206Z,100.00
2022-11-23T09:07:09.444Z,100.00
2022-11-23T09:09:36.269Z,100.00
2022-11-23T09:12:03.202Z,100.00
2022-11-23T09:14:30.421Z,100.00
2022-11-23T09:16:57.648Z,100.00
2022-11-23T09:19:24.225Z,100.00
2022-11-23T09:21:51.370Z,100.00
2022-11-23T09:24:18.041Z,100.00
2022-11-23T09:26:44.998Z,100.00
2022-11-23T09:29:11.638Z,100.00
2022-11-23T09:31:39.168Z,100.00
2022-11-23T09:34:06.416Z,100.00
2022-11-23T09:36:33.656Z,100.00
2022-11-23T09:39:00.193Z,100.00
2022-11-23T09:41:55.222Z,100.00
2022-11-23T09:44:29.773Z,100.00
2022-11-23T09:47:29.013Z,100.00
2022-11-23T09:50:07.584Z,100.00
2022-11-23T09:52:38.457Z,100.00
2022-11-23T09:55:13.802Z,100.00
2022-11-23T09:57:44.006Z,100.00
2022-11-23T10:00:23.210Z,100.00
2022-11-23T10:02:50.462Z,100.00
2022-11-23T10:05:24.046Z,100.00
2022-11-23T10:08:09.518Z,100.00
2022-11-23T10:10:43.629Z,100.00
2022-11-23T10:13:23.345Z,100.00
2022-11-23T10:15:56.518Z,100.00
2022-11-23T10:18:32.613Z,100.00
2022-11-23T10:21:24.338Z,100.00
2022-11-23T10:24:20.293Z,100.00
2022-11-23T10:26:49.525Z,100.00
2022-11-23T10:29:37.569Z,100.00
2022-11-23T10:32:07.652Z,100.00
2022-11-23T10:34:57.304Z,100.00
2022-11-23T10:37:23.857Z,100.00
2022-11-23T10:39:51.111Z,100.00
2022-11-23T10:42:24.453Z,100.00
2022-11-23T10:44:53.427Z,100.00
2022-11-23T10:47:38.735Z,100.00
2022-11-23T10:50:26.162Z,100.00
2022-11-23T10:52:56.615Z,100.00
2022-11-23T10:55:27.882Z,100.00
2022-11-23T10:57:56.107Z,100.00
2022-11-23T11:00:30.038Z,100.00
2022-11-23T11:02:59.541Z,100.00
2022-11-23T11:08:49.281Z,100.00
2022-11-23T11:11:26.060Z,100.00
2022-11-23T11:14:04.888Z,100.00
2022-11-23T11:16:36.971Z,100.00
2022-11-23T11:19:26.154Z,100.00
2022-11-23T11:21:52.729Z,100.00
2022-11-23T11:24:44.075Z,100.00
2022-11-23T11:27:20.594Z,100.00
2022-11-23T11:29:51.420Z,100.00
2022-11-23T11:32:25.711Z,100.00
2022-11-23T11:35:21.375Z,100.00
2022-11-23T11:37:51.500Z,100.00
2022-11-23T11:40:33.676Z,100.00
2022-11-23T11:43:15.432Z,100.00
2022-11-23T11:46:13.036Z,100.00
2022-11-23T11:48:41.355Z,100.00
2022-11-23T11:51:19.642Z,100.00
2022-11-23T11:53:57.592Z,100.00
2022-11-23T11:56:39.193Z,100.00
2022-11-23T11:59:18.377Z,100.00
2022-11-23T12:01:50.979Z,100.00
2022-11-23T12:04:26.336Z,100.00
2022-11-23T12:07:17.763Z,100.00
2022-11-23T12:09:50.786Z,100.00
2022-11-23T12:12:23.871Z,100.00
2022-11-23T12:14:55.248Z,100.00
2022-11-23T12:17:35.494Z,100.00
2022-11-23T12:20:11.718Z,100.00
2022-11-23T12:23:00.022Z,100.00
2022-11-23T12:25:38.178Z,100.00
2022-11-23T12:28:34.438Z,100.00
2022-11-23T12:31:18.980Z,100.00
2022-11-23T12:33:55.332Z,100.00
2022-11-23T12:36:34.146Z,100.00
2022-11-23T12:39:22.300Z,100.00
2022-11-23T12:42:07.535Z,100.00
2022-11-23T12:44:54.861Z,100.00
2022-11-23T12:47:34.963Z,100.00
2022-11-23T12:50:22.412Z,100.00
2022-11-23T12:53:19.779Z,100.00
2022-11-23T12:56:27.685Z,100.00
2022-11-23T12:58:56.787Z,100.00
2022-11-23T13:01:30.720Z,100.00
2022-11-23T13:04:19.618Z,100.00
2022-11-23T13:07:26.917Z,100.00
2022-11-23T13:09:51.683Z,100.00
2022-11-23T13:12:43.834Z,100.00
2022-11-23T13:15:30.179Z,100.00
2022-11-23T13:18:05.789Z,100.00
2022-11-23T13:21:11.559Z,100.00
2022-11-23T13:23:39.386Z,100.00
2022-11-23T13:26:24.583Z,100.00
2022-11-23T13:28:53.368Z,100.00
2022-11-23T13:31:31.731Z,100.00
2022-11-23T13:34:01.808Z,100.00
2022-11-23T13:37:10.686Z,100.00
2022-11-23T13:39:51.158Z,100.00
2022-11-23T13:42:18.559Z,100.00
2022-11-23T13:44:45.790Z,100.00
2022-11-23T13:47:14.673Z,100.00
2022-11-23T13:49:46.293Z,100.00
2022-11-23T13:52:22.305Z,100.00
2022-11-23T13:55:10.150Z,100.00
2022-11-23T13:57:38.946Z,100.00
2022-11-23T14:00:49.260Z,100.00
2022-11-23T14:03:49.096Z,100.00
2022-11-23T14:06:37.514Z,100.00
2022-11-23T14:09:36.391Z,100.00
2022-11-23T14:12:12.827Z,100.00
2022-11-23T14:14:57.633Z,100.00
2022-11-23T14:17:27.499Z,100.00
2022-11-23T14:20:24.420Z,100.00
2022-11-23T14:23:39.112Z,100.00
2022-11-23T14:26:18.463Z,100.00
2022-11-23T14:29:08.456Z,100.00
2022-11-23T14:32:09.684Z,100.00
2022-11-23T14:34:50.946Z,100.00
2022-11-23T14:37:39.934Z,100.00
2022-11-23T14:40:28.075Z,100.00
2022-11-23T14:42:57.492Z,100.00
2022-11-23T14:45:28.117Z,100.00
2022-11-23T14:47:54.688Z,100.00
2022-11-23T14:50:30.013Z,100.00
2022-11-23T14:52:58.971Z,100.00
2022-11-23T14:55:30.894Z,100.00
2022-11-23T14:58:02.441Z,100.00
2022-11-23T15:00:34.233Z,100.00
2022-11-23T15:03:34.600Z,100.00
2022-11-23T15:06:13.670Z,100.00
2022-11-23T15:08:54.914Z,100.00
2022-11-23T15:11:26.326Z,100.00
2022-11-23T15:14:03.328Z,100.00
2022-11-23T15:16:39.376Z,100.00
2022-11-23T15:19:28.649Z,100.00
2022-11-23T15:21:57.307Z,100.00
2022-11-23T15:24:26.279Z,100.00
2022-11-23T15:26:59.737Z,100.00
2022-11-23T15:29:30.597Z,100.00
2022-11-23T15:32:28.427Z,100.00
2022-11-23T15:34:46.243Z,100.00
2022-11-23T15:37:13.667Z,100.00
2022-11-23T15:39:41.592Z,100.00
2022-11-23T15:42:16.023Z,100.00
2022-11-23T15:44:47.485Z,100.00
2022-11-23T15:47:25.228Z,100.00
2022-11-23T15:49:58.583Z,100.00
2022-11-23T15:52:28.918Z,100.00
2022-11-23T15:54:55.906Z,100.00
2022-11-23T15:57:26.741Z,100.00
2022-11-23T15:59:58.922Z,100.00
2022-11-23T16:02:29.012Z,100.00
2022-11-23T16:05:11.134Z,100.00
2022-11-23T16:07:57.921Z,100.00
2022-11-23T16:10:32.234Z,100.00
2022-11-23T16:13:06.029Z,100.00
2022-11-23T16:15:38.841Z,100.00
2022-11-23T16:18:18.727Z,100.00
2022-11-23T16:20:48.844Z,100.00
2022-11-23T16:23:24.751Z,100.00
2022-11-23T16:26:10.462Z,100.00
2022-11-23T16:28:39.289Z,100.00
2022-11-23T16:31:06.354Z,100.00
2022-11-23T16:33:34.270Z,100.00
2022-11-23T16:36:00.949Z,100.00
2022-11-23T16:38:27.806Z,100.00
2022-11-23T16:40:56.193Z,100.00
2022-11-23T16:43:23.402Z,100.00
2022-11-23T16:45:51.438Z,100.00
2022-11-23T16:48:25.484Z,100.00
2022-11-23T16:50:56.763Z,100.00
2022-11-23T16:53:27.157Z,100.00
2022-11-23T16:55:55.467Z,100.00
2022-11-23T16:58:22.971Z,100.00
2022-11-23T17:00:50.109Z,100.00
2022-11-23T17:03:21.447Z,100.00
2022-11-23T17:05:48.287Z,100.00
2022-11-23T17:08:21.548Z,100.00
2022-11-23T17:10:50.797Z,100.00
2022-11-23T17:13:26.589Z,100.00
2022-11-23T17:15:53.981Z,100.00
2022-11-23T17:18:22.349Z,100.00
2022-11-23T17:20:49.143Z,100.00
2022-11-23T17:23:16.329Z,100.00
2022-11-23T17:25:42.985Z,100.00
2022-11-23T17:28:21.496Z,100.00
2022-11-23T17:30:48.384Z,100.00
2022-11-23T17:33:15.334Z,100.00
2022-11-23T17:35:42.247Z,100.00
2022-11-23T17:38:15.529Z,100.00
2022-11-23T17:40:42.329Z,100.00
2022-11-23T17:43:14.440Z,100.00
2022-11-23T17:45:41.693Z,100.00
2022-11-23T17:48:13.326Z,100.00
2022-11-23T17:50:39.962Z,100.00
2022-11-23T17:53:07.384Z,100.00
2022-11-23T17:55:33.903Z,100.00
2022-11-23T17:58:01.273Z,100.00
2022-11-23T18:00:29.431Z,100.00
2022-11-23T18:02:56.611Z,100.00
2022-11-23T18:05:23.358Z,100.00
2022-11-23T18:07:51.178Z,100.00
2022-11-23T18:10:18.164Z,100.00
2022-11-23T18:12:46.498Z,100.00
2022-11-23T18:15:13.168Z,100.00
2022-11-23T18:17:40.136Z,100.00
2022-11-23T18:20:08.180Z,100.00
2022-11-23T18:22:36.113Z,100.00
2022-11-23T18:25:02.760Z,100.00
2022-11-23T18:27:30.106Z,100.00
2022-11-23T18:29:56.763Z,100.00
2022-11-23T18:32:23.930Z,100.00
2022-11-23T18:34:50.600Z,100.00
2022-11-23T18:37:17.915Z,100.00
2022-11-23T18:39:44.438Z,100.00
2022-11-23T18:42:12.131Z,100.00
2022-11-23T18:44:38.658Z,100.00
2022-11-23T18:47:05.532Z,100.00
2022-11-23T18:49:32.529Z,100.00
2022-11-23T18:51:59.903Z,100.00
2022-11-23T18:54:26.475Z,100.00
2022-11-23T18:56:53.447Z,100.00
2022-11-23T18:59:42.520Z,100.00
2022-11-23T19:02:09.624Z,100.00
2022-11-23T19:04:36.231Z,100.00
2022-11-23T19:07:02.817Z,100.00
2022-11-23T19:09:29.370Z,100.00
2022-11-23T19:11:55.953Z,100.00
2022-11-23T19:14:22.511Z,100.00
2022-11-23T19:16:49.027Z,100.00
2022-11-23T19:19:17.926Z,100.00
2022-11-23T19:21:44.722Z,100.00
2022-11-23T19:24:11.269Z,100.00
2022-11-23T19:26:38.143Z,100.00
2022-11-23T19:29:05.004Z,100.00
2022-11-23T19:31:33.208Z,100.00
2022-11-23T19:34:02.051Z,100.00
2022-11-23T19:36:30.615Z,100.00
2022-11-23T19:38:57.927Z,100.00
2022-11-23T19:41:29.974Z,100.00
2022-11-23T19:43:58.913Z,100.00
2022-11-23T19:46:25.504Z,100.00
2022-11-23T19:48:52.262Z,100.00
2022-11-23T19:51:20.418Z,100.00
2022-11-23T19:53:49.088Z,100.00
2022-11-23T19:56:28.759Z,100.00
2022-11-23T19:58:56.809Z,100.00
2022-11-23T20:01:25.428Z,100.00
2022-11-23T20:03:54.854Z,100.00
2022-11-23T20:06:26.107Z,100.00
2022-11-23T20:08:57.029Z,100.00
2022-11-23T20:11:24.451Z,100.00
2022-11-23T20:13:51.433Z,100.00
2022-11-23T20:16:20.276Z,100.00
2022-11-23T20:18:49.103Z,100.00
2022-11-23T20:21:17.860Z,100.00
2022-11-23T20:23:46.150Z,100.00
2022-11-23T20:26:15.392Z,100.00
2022-11-23T20:28:42.747Z,100.00
2022-11-23T20:31:20.035Z,100.00
2022-11-23T20:33:47.469Z,100.00
2022-11-23T20:36:15.210Z,100.00
2022-11-23T20:38:42.490Z,100.00
2022-11-23T20:41:26.234Z,100.00
2022-11-23T20:43:57.803Z,100.00
2022-11-23T20:46:53.555Z,100.00
2022-11-23T20:49:14.465Z,100.00
2022-11-23T20:51:41.029Z,100.00
2022-11-23T20:54:09.605Z,100.00
2022-11-23T20:56:39.036Z,100.00
2022-11-23T20:59:06.437Z,100.00
2022-11-23T21:01:34.817Z,100.00
2022-11-23T21:04:01.467Z,100.00
2022-11-23T21:06:29.074Z,100.00
2022-11-23T21:08:56.421Z,100.00
2022-11-23T21:11:46.611Z,100.00
2022-11-23T21:14:19.317Z,100.00
2022-11-23T21:16:55.361Z,100.00
2022-11-23T21:19:24.591Z,100.00
2022-11-23T21:21:52.773Z,100.00
2022-11-23T21:24:19.850Z,100.00
2022-11-23T21:26:47.798Z,100.00
2022-11-23T21:29:18.429Z,100.00
